Time;durP1;ratioP1;P1;durP2;ratioP2;P2;SDS_P1;SDS_P2;PMS_P1;PMS_P2;Temp;Humidity;BMP_temperature;BMP_pressure;BME280_temperature;BME280_humidity;BME280_pressure;Samples;Min_cycle;Max_cycle;Signal;HPM_P1;HPM_P2
2022/05/08 00:00:24;;;;;;;9.10;4.37;;;;;;;14.27;68.23;102508.44;5214695;28;20499;-88
2022/05/08 00:02:57;;;;;;;7.40;3.60;;;;;;;14.44;66.92;102509.38;5213147;28;20500;-88
2022/05/08 00:05:28;;;;;;;6.97;4.30;;;;;;;14.20;67.51;102511.44;5214380;28;20432;-88
2022/05/08 00:07:59;;;;;;;8.13;4.27;;;;;;;14.27;68.18;102513.72;5213505;28;20124;-88
2022/05/08 00:10:31;;;;;;;8.63;4.43;;;;;;;14.39;67.35;102508.75;5197015;28;20046;-88
2022/05/08 00:13:02;;;;;;;5.53;4.03;;;;;;;14.37;67.22;102507.97;5213291;28;20030;-88
2022/05/08 00:15:34;;;;;;;7.27;4.53;;;;;;;14.30;67.41;102493.38;5214366;28;20065;-86
2022/05/08 00:18:05;;;;;;;9.70;4.73;;;;;;;14.15;67.95;102501.13;5213272;28;20384;-87
2022/05/08 00:20:36;;;;;;;9.00;4.43;;;;;;;14.05;68.65;102499.88;5204160;28;20477;-88
2022/05/08 00:23:08;;;;;;;7.93;4.37;;;;;;;14.20;67.73;102499.13;5207572;28;20056;-88
2022/05/08 00:25:39;;;;;;;13.97;5.77;;;;;;;14.15;68.57;102498.50;5214095;28;20050;-87
2022/05/08 00:28:10;;;;;;;8.07;4.70;;;;;;;14.10;68.80;102497.88;5208579;28;20426;-87
2022/05/08 00:30:41;;;;;;;8.20;4.63;;;;;;;14.24;69.32;102503.31;5214148;28;20621;-88
2022/05/08 00:33:13;;;;;;;11.40;5.33;;;;;;;14.11;69.18;102510.09;5204474;28;20025;-87
2022/05/08 00:35:44;;;;;;;8.03;4.30;;;;;;;14.08;69.64;102497.94;5202880;28;20069;-89
2022/05/08 00:38:15;;;;;;;7.13;4.70;;;;;;;14.02;69.81;102499.09;5209428;28;20057;-88
2022/05/08 00:40:46;;;;;;;8.40;4.50;;;;;;;14.08;70.01;102502.34;5214289;28;20420;-89
2022/05/08 00:43:25;;;;;;;9.70;5.23;;;;;;;14.30;68.53;102496.03;5211723;28;20509;-88
2022/05/08 00:45:58;;;;;;;11.33;5.13;;;;;;;13.99;69.37;102504.50;5213943;28;20117;-87
2022/05/08 00:48:29;;;;;;;10.63;5.40;;;;;;;14.11;68.80;102504.84;5213363;28;20038;-88
2022/05/08 00:51:04;;;;;;;9.17;5.00;;;;;;;14.12;70.02;102504.75;5211075;28;20038;-88
2022/05/08 00:54:00;;;;;;;11.03;5.10;;;;;;;14.07;69.77;102512.03;5213399;28;20037;-87
2022/05/08 00:56:32;;;;;;;9.47;5.27;;;;;;;14.02;69.07;102509.63;5209871;28;20460;-88
2022/05/08 00:59:03;;;;;;;9.33;4.80;;;;;;;13.95;70.00;102505.56;5208727;28;20030;-89
2022/05/08 01:01:35;;;;;;;12.47;6.07;;;;;;;13.79;70.87;102500.16;5212051;28;20033;-89
2022/05/08 01:04:06;;;;;;;9.20;5.60;;;;;;;13.86;70.63;102503.38;5212504;28;20038;-90
2022/05/08 01:06:37;;;;;;;11.17;5.23;;;;;;;13.99;70.13;102512.41;5210765;28;20060;-88
2022/05/08 01:09:09;;;;;;;13.10;6.37;;;;;;;13.83;70.59;102512.28;5215141;28;20025;-88
2022/05/08 01:11:40;;;;;;;9.37;5.40;;;;;;;13.84;70.80;102507.88;5213902;28;20013;-89
2022/05/08 01:14:13;;;;;;;10.50;5.80;;;;;;;13.89;70.45;102519.88;5213961;28;20040;-88
2022/05/08 01:16:44;;;;;;;12.47;5.67;;;;;;;13.94;70.26;102517.03;5213874;28;20022;-86
2022/05/08 01:19:16;;;;;;;9.33;6.03;;;;;;;13.87;69.77;102511.22;5211724;28;20092;-88
2022/05/08 01:21:47;;;;;;;11.50;6.60;;;;;;;13.67;71.09;102520.03;5213433;28;20025;-89
2022/05/08 01:24:22;;;;;;;10.70;6.27;;;;;;;13.86;70.39;102504.22;5215055;28;20044;-88
2022/05/08 01:26:53;;;;;;;14.10;7.07;;;;;;;13.77;69.38;102505.50;5211388;28;20027;-88
2022/05/08 01:29:24;;;;;;;12.47;7.33;;;;;;;13.83;69.56;102503.50;5194191;28;20057;-88
2022/05/08 01:31:56;;;;;;;11.83;6.97;;;;;;;13.59;69.67;102519.53;5211563;28;20504;-87
2022/05/08 01:34:27;;;;;;;10.63;6.87;;;;;;;13.65;69.76;102513.97;5202108;28;20030;-89
2022/05/08 01:36:58;;;;;;;10.17;7.50;;;;;;;13.63;70.24;102518.47;5214463;28;20033;-89
2022/05/08 01:39:30;;;;;;;13.40;6.60;;;;;;;13.60;69.60;102526.50;5210790;28;20027;-89
2022/05/08 01:42:04;;;;;;;11.97;6.93;;;;;;;13.57;69.69;102524.00;5217064;28;20034;-89
2022/05/08 01:44:35;;;;;;;;;;;;;;;13.94;67.57;102527.59;5214557;28;20030;-89
2022/05/08 01:49:57;;;;;;;13.07;7.13;;;;;;;13.54;69.41;102530.28;5210359;28;20510;-89
2022/05/08 01:52:28;;;;;;;9.70;6.77;;;;;;;13.39;71.18;102529.16;5209005;28;20116;-89
2022/05/08 01:55:01;;;;;;;11.63;7.00;;;;;;;13.38;71.02;102530.94;5213406;28;20064;-88
2022/05/08 01:57:32;;;;;;;7.47;6.47;;;;;;;13.57;70.02;102534.53;5211754;28;20049;-89
2022/05/08 02:00:04;;;;;;;10.93;7.40;;;;;;;13.51;69.27;102530.41;5207982;28;20132;-88
2022/05/08 02:02:37;;;;;;;14.00;7.57;;;;;;;13.29;69.87;102532.22;5207690;28;20538;-89
2022/05/08 02:05:08;;;;;;;14.23;7.97;;;;;;;13.43;69.35;102528.09;5208563;28;20030;-88
2022/05/08 02:07:40;;;;;;;13.43;8.40;;;;;;;13.25;71.13;102530.63;5212046;28;20053;-88
2022/05/08 02:10:13;;;;;;;13.23;7.87;;;;;;;13.24;70.27;102543.84;5215625;28;20489;-87
2022/05/08 02:12:45;;;;;;;16.67;9.13;;;;;;;13.25;69.74;102541.16;5215047;28;20484;-90
2022/05/08 02:15:16;;;;;;;15.10;8.30;;;;;;;13.23;69.87;102532.47;5208967;28;20053;-89
2022/05/08 02:17:48;;;;;;;12.80;7.93;;;;;;;13.00;71.11;102546.63;5195292;28;20022;-88
2022/05/08 02:20:19;;;;;;;13.80;9.03;;;;;;;13.08;70.88;102541.88;5216920;28;20497;-88
2022/05/08 02:22:51;;;;;;;17.60;8.90;;;;;;;13.07;71.18;102545.47;5214266;28;20526;-88
2022/05/08 02:25:23;;;;;;;12.93;7.93;;;;;;;13.07;71.26;102538.41;5213628;28;20034;-88
2022/05/08 02:27:54;;;;;;;13.10;7.87;;;;;;;13.10;70.78;102547.09;5225862;28;20025;-90
2022/05/08 02:30:26;;;;;;;12.67;8.17;;;;;;;13.09;71.52;102555.91;5210876;28;20034;-89
2022/05/08 02:32:57;;;;;;;13.80;8.80;;;;;;;13.04;71.57;102553.44;5212403;28;20030;-87
2022/05/08 02:35:29;;;;;;;11.50;7.87;;;;;;;12.95;72.06;102550.31;5212325;28;20029;-87
2022/05/08 02:38:00;;;;;;;14.07;8.50;;;;;;;12.80;72.33;102546.56;5211538;28;20029;-86
2022/05/08 02:40:31;;;;;;;11.73;8.80;;;;;;;12.82;73.31;102546.50;5212631;28;20045;-87
2022/05/08 02:43:03;;;;;;;14.93;8.73;;;;;;;13.04;71.44;102553.44;5209096;28;20037;-87
2022/05/08 02:45:34;;;;;;;16.40;8.97;;;;;;;12.75;71.92;102543.28;5199004;28;20453;-88
2022/05/08 02:48:07;;;;;;;14.90;9.43;;;;;;;12.74;73.46;102552.06;5210394;28;20556;-88
2022/05/08 02:50:39;;;;;;;13.53;8.47;;;;;;;12.72;73.12;102546.03;5194299;28;20040;-88
2022/05/08 02:53:10;;;;;;;13.60;9.40;;;;;;;12.88;72.17;102554.13;5206883;28;20466;-89
2022/05/08 02:58:34;;;;;;;16.10;10.07;;;;;;;12.76;72.26;102557.28;5213362;28;20038;-88
2022/05/08 03:01:05;;;;;;;12.55;8.93;;;;;;;12.93;71.43;102561.81;5212441;28;20050;-87
2022/05/08 03:03:37;;;;;;;16.03;9.67;;;;;;;12.85;71.17;102553.38;5213259;28;20590;-88
2022/05/08 03:06:08;;;;;;;17.57;8.63;;;;;;;12.70;71.36;102572.38;5209730;28;20408;-86
2022/05/08 03:08:40;;;;;;;12.80;8.23;;;;;;;12.70;70.61;102548.72;5212642;28;20077;-88
2022/05/08 03:11:26;;;;;;;14.37;8.30;;;;;;;12.67;70.84;102555.88;5209092;28;20536;-88
2022/05/08 03:13:58;;;;;;;17.10;8.70;;;;;;;12.58;71.26;102559.75;5212144;28;20030;-88
2022/05/08 03:16:29;;;;;;;16.07;9.03;;;;;;;12.60;72.00;102552.66;5197268;28;20473;-87
2022/05/08 03:19:01;;;;;;;13.57;10.23;;;;;;;12.61;71.89;102564.88;5212531;28;20034;-87
2022/05/08 03:21:34;;;;;;;13.40;8.73;;;;;;;12.57;71.74;102551.00;5211221;28;20033;-88
2022/05/08 03:24:06;;;;;;;15.05;8.98;;;;;;;12.31;71.30;102549.41;5213406;28;20499;-88
2022/05/08 03:26:37;;;;;;;14.70;9.27;;;;;;;12.50;70.51;102557.41;5212226;28;20018;-88
2022/05/08 03:29:09;;;;;;;15.63;9.33;;;;;;;12.48;71.08;102546.09;5210864;28;20018;-88
2022/05/08 03:31:40;;;;;;;15.13;8.37;;;;;;;12.32;71.31;102557.22;5212268;28;20030;-88
2022/05/08 03:34:11;;;;;;;16.73;8.00;;;;;;;12.16;71.22;102549.13;5205681;28;20037;-87
2022/05/08 03:36:43;;;;;;;15.60;9.57;;;;;;;12.20;71.71;102563.00;5211613;28;20030;-86
2022/05/08 03:39:15;;;;;;;14.10;8.27;;;;;;;12.31;71.39;102557.31;5211989;28;20034;-88
2022/05/08 03:41:46;;;;;;;14.97;8.97;;;;;;;12.21;71.78;102560.31;5211927;28;20357;-88
2022/05/08 03:44:17;;;;;;;19.67;8.63;;;;;;;12.19;70.82;102550.75;5212797;28;20096;-89
2022/05/08 03:46:48;;;;;;;16.50;8.90;;;;;;;12.35;70.59;102553.66;5212054;28;20542;-87
2022/05/08 03:49:20;;;;;;;22.60;9.83;;;;;;;12.20;70.63;102555.94;5213345;28;20076;-90
2022/05/08 03:51:51;;;;;;;16.77;7.83;;;;;;;12.31;68.94;102555.53;5213085;28;20118;-89
2022/05/08 03:54:22;;;;;;;13.30;7.53;;;;;;;12.24;68.69;102555.81;5215048;28;20026;-92
2022/05/08 03:56:53;;;;;;;19.67;8.67;;;;;;;12.00;69.67;102555.84;5214571;28;20053;-88
2022/05/08 03:59:25;;;;;;;13.90;7.17;;;;;;;12.26;67.82;102552.25;5214954;28;20415;-88
2022/05/08 04:01:56;;;;;;;14.87;6.70;;;;;;;12.08;68.98;102559.88;5215283;28;20037;-88
2022/05/08 04:04:28;;;;;;;11.70;6.70;;;;;;;12.14;68.74;102566.72;5213721;28;20022;-89
2022/05/08 04:06:59;;;;;;;14.87;7.07;;;;;;;12.20;67.75;102565.63;5214656;28;20081;-89
2022/05/08 04:09:30;;;;;;;17.47;8.47;;;;;;;12.01;67.44;102553.16;5213403;28;20022;-88
2022/05/08 04:12:02;;;;;;;24.67;6.73;;;;;;;12.14;67.85;102560.59;5212951;28;20021;-88
2022/05/08 04:14:33;;;;;;;13.57;7.03;;;;;;;12.14;67.18;102573.72;5214803;28;20029;-89
2022/05/08 04:17:04;;;;;;;18.10;6.57;;;;;;;12.02;67.20;102569.78;5209124;28;20030;-87
2022/05/08 04:19:36;;;;;;;15.73;6.10;;;;;;;11.94;66.02;102577.94;5210032;28;20021;-86
2022/05/08 04:24:57;;;;;;;21.23;6.47;;;;;;;11.77;66.37;102570.69;5216181;28;20049;-87
2022/05/08 04:27:28;;;;;;;24.97;6.83;;;;;;;11.92;66.06;102579.78;5216179;28;20371;-88
2022/05/08 04:30:00;;;;;;;17.83;6.33;;;;;;;11.84;66.18;102578.28;5215888;28;20038;-86
2022/05/08 04:32:31;;;;;;;18.33;5.70;;;;;;;11.85;65.59;102580.00;5216762;28;20164;-87
2022/05/08 04:35:03;;;;;;;20.10;6.33;;;;;;;11.91;65.01;102573.66;5215917;28;20033;-86
2022/05/08 04:37:34;;;;;;;22.17;6.53;;;;;;;11.76;65.36;102569.84;5215119;28;20025;-87
2022/05/08 04:40:06;;;;;;;23.87;6.73;;;;;;;11.66;65.50;102577.19;5215940;28;20033;-88
2022/05/08 04:42:37;;;;;;;19.50;5.77;;;;;;;11.62;67.39;102578.22;5215905;28;20129;-88
2022/05/08 04:45:09;;;;;;;22.33;6.97;;;;;;;11.77;65.98;102581.19;5199792;28;20157;-87
2022/05/08 04:47:40;;;;;;;18.03;5.50;;;;;;;11.70;66.51;102581.44;5218184;28;20041;-88
2022/05/08 04:50:11;;;;;;;19.87;5.53;;;;;;;11.61;66.29;102576.50;5228698;28;20239;-89
2022/05/08 04:52:43;;;;;;;20.90;6.57;;;;;;;11.65;66.03;102582.50;5233755;28;20021;-87
2022/05/08 04:55:14;;;;;;;22.80;5.60;;;;;;;11.61;66.30;102610.63;5234314;28;20026;-88
2022/05/08 04:57:45;;;;;;;24.97;6.37;;;;;;;11.44;67.39;102608.59;5234022;28;20042;-89
2022/05/08 05:00:17;;;;;;;23.37;5.63;;;;;;;11.56;67.01;102609.94;5235393;28;20018;-89
2022/05/08 05:02:48;;;;;;;18.70;5.83;;;;;;;11.64;66.88;102612.28;5231561;28;20021;-87
2022/05/08 05:05:19;;;;;;;21.73;7.20;;;;;;;11.60;67.12;102611.53;5218405;28;20109;-89
2022/05/08 05:07:51;;;;;;;16.87;5.77;;;;;;;11.61;66.44;102603.63;5214227;28;20097;-89
2022/05/08 05:10:22;;;;;;;18.10;5.83;;;;;;;11.77;66.30;102608.31;5216057;28;20041;-75
2022/05/08 05:12:54;;;;;;;23.17;6.80;;;;;;;11.58;66.70;102619.47;5215369;28;20036;-88
2022/05/08 05:15:25;;;;;;;20.83;5.80;;;;;;;11.39;67.86;102624.50;5214932;28;20105;-89
2022/05/08 05:18:01;;;;;;;24.67;5.90;;;;;;;11.52;67.41;102624.09;5214395;28;20513;-88
2022/05/08 05:20:32;;;;;;;22.00;6.07;;;;;;;11.36;67.88;102622.84;5214094;28;20026;-87
2022/05/08 05:23:04;;;;;;;25.00;6.77;;;;;;;11.31;68.40;102629.16;5216081;28;20109;-88
2022/05/08 05:25:35;;;;;;;26.53;6.47;;;;;;;11.34;67.97;102619.44;5212732;28;20120;-88
2022/05/08 05:28:06;;;;;;;25.30;6.40;;;;;;;11.41;67.17;102627.94;5213588;28;20060;-90
2022/05/08 05:30:38;;;;;;;24.27;7.20;;;;;;;11.18;68.13;102626.09;5214291;28;20521;-89
2022/05/08 05:33:15;;;;;;;22.37;6.57;;;;;;;11.26;67.92;102647.66;5214519;28;20034;-89
2022/05/08 05:35:46;;;;;;;20.90;5.87;;;;;;;11.48;68.06;102646.94;5213473;28;20105;-89
2022/05/08 05:38:18;;;;;;;25.63;6.47;;;;;;;11.43;67.75;102646.25;5214370;28;20125;-89
2022/05/08 05:40:49;;;;;;;23.33;6.37;;;;;;;11.35;66.99;102652.63;5214184;28;20022;-89
2022/05/08 05:43:20;;;;;;;20.90;6.63;;;;;;;11.40;67.17;102652.44;5212566;28;20026;-88
2022/05/08 05:47:49;;;;;;;22.87;7.00;;;;;;;11.45;67.59;102654.94;5213670;28;20091;-88
2022/05/08 05:48:43;;;;;;;20.37;6.63;;;;;;;11.17;66.98;102654.06;5214193;28;20116;-88
2022/05/08 05:51:14;;;;;;;25.03;5.90;;;;;;;11.25;67.31;102667.81;5213202;28;20048;-89
2022/05/08 05:53:45;;;;;;;16.83;5.17;;;;;;;11.35;67.05;102670.13;5211844;28;20040;-89
2022/05/08 05:56:17;;;;;;;22.93;5.77;;;;;;;11.47;67.15;102674.09;5214226;28;20061;-88
2022/05/08 05:58:48;;;;;;;31.47;6.40;;;;;;;11.28;66.42;102669.47;5212393;28;20010;-88
2022/05/08 06:01:19;;;;;;;23.47;5.90;;;;;;;11.26;66.34;102666.03;5212294;28;20026;-88
2022/05/08 06:03:51;;;;;;;21.50;6.60;;;;;;;11.55;66.22;102682.56;5213214;28;20068;-88
2022/05/08 06:06:22;;;;;;;23.90;5.37;;;;;;;11.57;65.35;102674.63;5211591;28;20346;-76
2022/05/08 06:08:53;;;;;;;25.30;6.03;;;;;;;11.56;65.71;102684.28;5212621;28;20025;-89
2022/05/08 06:11:24;;;;;;;19.47;5.20;;;;;;;11.67;65.09;102683.91;5211557;28;20034;-89
2022/05/08 06:13:56;;;;;;;27.73;6.97;;;;;;;11.82;64.86;102689.50;5211590;28;20096;-87
2022/05/08 06:16:27;;;;;;;16.77;5.10;;;;;;;11.69;64.47;102684.72;5210932;28;20037;-89
2022/05/08 06:19:00;;;;;;;21.77;6.50;;;;;;;11.61;64.76;102684.97;5213260;28;20374;-88
2022/05/08 06:21:32;;;;;;;27.20;7.17;;;;;;;11.71;65.58;102695.16;5211699;28;20025;-87
2022/05/08 06:24:03;;;;;;;24.30;6.17;;;;;;;11.77;64.96;102691.44;5211466;28;20175;-88
2022/05/08 06:26:34;;;;;;;19.73;5.17;;;;;;;11.93;64.15;102697.00;5212467;28;20401;-88
2022/05/08 06:29:06;;;;;;;20.20;5.90;;;;;;;11.83;64.08;102686.00;5213124;28;20026;-89
2022/05/08 06:31:37;;;;;;;19.27;5.50;;;;;;;11.89;63.55;102682.25;5213435;28;20029;-88
2022/05/08 06:34:08;;;;;;;22.37;5.37;;;;;;;11.74;63.53;102697.66;5208754;28;20673;-87
2022/05/08 06:36:40;;;;;;;22.53;5.73;;;;;;;11.85;63.00;102699.94;5214926;28;20057;-88
2022/05/08 06:39:13;;;;;;;21.37;5.10;;;;;;;11.96;62.55;102708.25;5219217;28;20821;-90
2022/05/08 06:41:44;;;;;;;17.03;5.07;;;;;;;12.17;62.45;102710.19;5216701;28;20465;-87
2022/05/08 06:44:18;;;;;;;19.10;4.90;;;;;;;11.94;61.84;102704.81;5220735;28;20033;-90
2022/05/08 06:46:49;;;;;;;28.05;6.85;;;;;;;12.17;61.26;102720.69;5218987;28;20038;-89
2022/05/08 06:49:21;;;;;;;25.40;7.10;;;;;;;12.18;62.64;102720.63;5217750;28;20033;-89
2022/05/08 06:51:52;;;;;;;24.13;6.70;;;;;;;12.08;61.70;102708.72;5218094;28;20084;-73
2022/05/08 06:54:26;;;;;;;21.67;5.90;;;;;;;12.25;60.74;102716.03;5214927;28;20026;-88
2022/05/08 06:56:59;;;;;;;25.80;6.40;;;;;;;12.19;61.04;102718.88;5214985;28;20113;-88
2022/05/08 07:02:20;;;;;;;16.90;5.03;;;;;;;12.50;60.49;102707.22;5206756;28;20030;-88
2022/05/08 07:04:52;;;;;;;23.23;4.93;;;;;;;12.51;59.92;102710.72;5213210;28;20034;-88
2022/05/08 07:07:23;;;;;;;19.37;5.00;;;;;;;12.18;60.59;102719.78;5211185;28;20084;-76
2022/05/08 07:09:55;;;;;;;21.97;6.30;;;;;;;12.39;60.27;102709.41;5210655;28;20037;-88
2022/05/08 07:12:26;;;;;;;16.87;4.83;;;;;;;12.45;59.42;102710.03;5213019;28;20048;-88
2022/05/08 07:14:59;;;;;;;29.83;6.80;;;;;;;12.54;60.67;102714.06;5199305;28;20425;-88
2022/05/08 07:17:30;;;;;;;25.00;6.00;;;;;;;12.75;59.73;102715.91;5214424;28;20496;-87
2022/05/08 07:20:03;;;;;;;18.67;5.40;;;;;;;12.77;58.93;102716.72;5210780;28;20018;-87
2022/05/08 07:22:35;;;;;;;19.90;5.47;;;;;;;12.87;58.79;102725.97;5209677;28;20044;-88
2022/05/08 07:25:07;;;;;;;20.97;5.27;;;;;;;13.11;58.62;102717.16;5210818;28;20025;-82
2022/05/08 07:27:39;;;;;;;24.87;5.90;;;;;;;13.14;57.99;102727.56;5210904;28;20076;-82
2022/05/08 07:30:11;;;;;;;20.93;5.53;;;;;;;13.45;57.36;102726.28;5209876;28;20443;-81
2022/05/08 07:32:44;;;;;;;19.43;5.13;;;;;;;14.09;56.11;102720.06;5207806;28;20033;-82
2022/05/08 07:38:05;;;;;;;21.30;4.60;;;;;;;15.75;52.56;102714.88;5209722;28;20060;-82
2022/05/08 07:40:37;;;;;;;20.87;6.37;;;;;;;16.08;50.78;102724.63;5208095;28;20195;-81
2022/05/08 07:43:09;;;;;;;18.57;4.90;;;;;;;16.51;48.22;102725.88;5211466;28;20029;-82
2022/05/08 07:45:40;;;;;;;19.10;4.83;;;;;;;16.97;46.89;102724.19;5212382;28;20036;-81
2022/05/08 07:48:11;;;;;;;24.33;5.27;;;;;;;17.70;47.28;102729.75;5210925;28;20032;-71
2022/05/08 07:50:45;;;;;;;16.37;4.63;;;;;;;18.29;44.38;102726.19;5207951;28;20064;-75
2022/05/08 07:53:17;;;;;;;21.88;5.28;;;;;;;18.81;43.09;102730.88;5212792;28;20436;-75
2022/05/08 07:55:51;;;;;;;20.37;4.73;;;;;;;18.81;42.92;102731.75;5210799;28;20091;-75
2022/05/08 07:58:23;;;;;;;25.87;6.30;;;;;;;19.23;41.97;102730.81;5215727;28;20018;-75
2022/05/08 08:00:57;;;;;;;21.77;5.53;;;;;;;19.89;41.31;102726.38;5235072;28;20212;-76
2022/05/08 08:03:30;;;;;;;16.50;5.05;;;;;;;20.36;40.70;102739.09;5217579;28;20030;-81
2022/05/08 08:06:02;;;;;;;21.30;5.45;;;;;;;20.26;40.00;102737.13;5209682;28;20044;-75
2022/05/08 08:08:33;;;;;;;20.55;4.63;;;;;;;20.95;39.83;102726.88;5213230;28;20069;-76
2022/05/08 08:11:05;;;;;;;18.15;5.40;;;;;;;20.99;38.34;102725.69;5213949;28;20273;-77
2022/05/08 08:13:37;;;;;;;14.98;4.55;;;;;;;21.08;37.18;102745.44;5213626;28;20059;-78
2022/05/08 08:16:08;;;;;;;23.42;5.60;;;;;;;21.28;35.89;102738.59;5213869;28;20072;-78
2022/05/08 08:18:42;;;;;;;19.10;5.30;;;;;;;21.48;35.64;102735.38;5204667;28;20026;-77
2022/05/08 08:21:15;;;;;;;13.75;4.80;;;;;;;22.12;35.39;102738.47;5216202;28;20037;-75
2022/05/08 08:23:46;;;;;;;15.65;5.10;;;;;;;22.12;34.84;102742.00;5212783;28;20133;-77
2022/05/08 08:26:18;;;;;;;19.08;6.03;;;;;;;21.97;34.70;102737.88;5211505;28;20113;-81
2022/05/08 08:28:49;;;;;;;14.15;4.32;;;;;;;22.48;34.01;102740.97;5214309;28;20026;-82
2022/05/08 08:31:20;;;;;;;21.90;5.10;;;;;;;22.89;32.48;102735.88;5217322;28;20073;-86
2022/05/08 08:33:52;;;;;;;14.35;5.05;;;;;;;22.96;32.77;102741.56;5210890;28;20041;-87
2022/05/08 08:36:23;;;;;;;19.20;5.40;;;;;;;23.69;31.66;102747.97;5213684;28;20111;-87
2022/05/08 08:38:55;;;;;;;16.08;5.20;;;;;;;23.29;32.26;102749.53;5212846;28;20116;-86
2022/05/08 08:41:34;;;;;;;19.83;5.43;;;;;;;24.26;32.49;102749.34;5199578;28;20351;-84
2022/05/08 08:49:52;;;;;;;18.17;5.63;;;;;;;25.07;31.45;102742.09;5193981;28;20038;-86
2022/05/08 08:52:26;;;;;;;20.00;5.03;;;;;;;25.48;29.75;102743.72;5198730;28;20026;-83
2022/05/08 08:54:59;;;;;;;13.63;5.00;;;;;;;25.74;28.45;102746.59;5205917;28;20156;-79
2022/05/08 08:57:30;;;;;;;18.13;5.43;;;;;;;26.27;28.62;102742.53;5233340;28;20026;-83
2022/05/08 09:00:03;;;;;;;17.20;5.13;;;;;;;25.09;28.15;102744.63;5224844;28;20030;-85
2022/05/08 09:02:35;;;;;;;17.90;5.22;;;;;;;26.00;27.64;102739.72;5212919;28;20026;-85
2022/05/08 09:05:09;;;;;;;11.55;4.30;;;;;;;26.39;27.66;102746.72;5212446;28;20026;-85
2022/05/08 09:07:43;;;;;;;16.45;4.93;;;;;;;26.01;25.99;102751.31;5209664;28;20035;-84
2022/05/08 09:10:25;;;;;;;15.60;4.68;;;;;;;26.81;27.50;102753.34;5173978;28;20026;-82
2022/05/08 09:12:59;;;;;;;15.45;5.57;;;;;;;26.47;27.03;102754.03;5195693;28;20014;-74
2022/05/08 09:15:35;;;;;;;15.93;4.43;;;;;;;26.93;25.27;102753.09;5229306;28;20021;-74
2022/05/08 09:18:08;;;;;;;15.43;4.35;;;;;;;27.11;24.91;102750.41;5223665;28;20085;-75
2022/05/08 09:20:42;;;;;;;14.25;4.47;;;;;;;27.76;24.37;102751.00;5210381;28;20551;-75
2022/05/08 09:23:23;;;;;;;13.98;3.88;;;;;;;28.00;25.11;102759.31;5210640;28;20018;-75
2022/05/08 09:25:57;;;;;;;14.60;3.67;;;;;;;27.39;23.38;102754.78;5210242;28;20397;-76
2022/05/08 09:28:31;;;;;;;13.20;4.32;;;;;;;26.98;23.51;102749.94;5209340;28;20029;-83
2022/05/08 09:31:02;;;;;;;10.80;4.22;;;;;;;27.98;23.61;102746.03;5207868;28;20026;-81
2022/05/08 09:33:39;;;;;;;13.23;4.25;;;;;;;27.85;23.99;102746.50;5219058;28;20041;-80
2022/05/08 09:36:24;;;;;;;13.65;4.30;;;;;;;27.95;23.62;102740.97;5198910;28;20026;-82
2022/05/08 09:38:59;;;;;;;12.70;3.97;;;;;;;27.80;23.18;102734.53;5197462;28;20033;-82
2022/05/08 09:41:39;;;;;;;12.02;4.30;;;;;;;27.77;22.25;102739.22;5199159;28;20142;-83
2022/05/08 09:44:15;;;;;;;10.23;3.75;;;;;;;28.70;21.43;102733.06;5205696;28;20018;-78
2022/05/08 09:46:48;;;;;;;9.40;3.40;;;;;;;28.48;21.39;102751.59;5191255;28;20052;-79
2022/05/08 09:49:21;;;;;;;;;;;;;;;30.32;20.71;102740.38;5198735;28;20042;-78
2022/05/08 09:51:53;;;;;;;11.95;3.38;;;;;;;29.66;21.91;102744.25;5198547;28;20180;-79
2022/05/08 09:54:26;;;;;;;12.57;3.90;;;;;;;28.27;22.87;102750.19;5197750;28;20796;-74
2022/05/08 09:56:59;;;;;;;10.60;3.60;;;;;;;28.66;21.66;102747.88;5200347;28;20064;-80
2022/05/08 09:59:30;;;;;;;13.02;4.32;;;;;;;29.01;21.85;102733.44;5200196;28;20068;-78
2022/05/08 10:02:03;;;;;;;11.50;4.25;;;;;;;28.57;21.82;102748.91;5198798;28;20155;-75
2022/05/08 10:04:36;;;;;;;12.07;3.97;;;;;;;28.69;22.17;102735.94;5197626;28;20148;-80
2022/05/08 10:07:08;;;;;;;;;;;;;;;30.78;22.54;102738.69;5159501;28;1061710;-76
2022/05/08 10:15:29;;;;;;;8.50;3.67;;;;;;;29.02;22.53;102732.41;5199575;28;20085;-77
2022/05/08 10:18:27;;;;;;;15.00;4.13;;;;;;;29.63;22.76;102718.44;5213924;28;20035;-73
2022/05/08 10:20:59;;;;;;;16.40;4.00;;;;;;;29.75;20.69;102712.66;5198109;28;20038;-72
2022/05/08 10:23:47;;;;;;;12.20;4.45;;;;;;;29.69;22.16;102725.84;5197825;28;20045;-72
2022/05/08 10:26:19;;;;;;;10.55;3.92;;;;;;;29.60;21.34;102726.88;5198719;28;20049;-71
2022/05/08 10:29:03;;;;;;;13.25;4.82;;;;;;;30.02;21.40;102718.59;5199822;28;20033;-72
2022/05/08 10:31:48;;;;;;;10.60;3.85;;;;;;;30.66;21.35;102719.38;5198989;28;20508;-72
2022/05/08 10:34:33;;;;;;;11.80;3.65;;;;;;;31.41;20.79;102720.53;5196124;28;20603;-72
2022/05/08 10:37:13;;;;;;;13.73;4.78;;;;;;;30.37;21.10;102710.97;5198458;28;20036;-74
2022/05/08 10:39:48;;;;;;;11.13;3.55;;;;;;;31.65;19.35;102710.44;5199433;28;20581;-69
2022/05/08 10:42:39;;;;;;;13.60;4.38;;;;;;;30.67;21.30;102712.91;5198698;28;20048;-84
2022/05/08 10:45:28;;;;;;;15.40;4.57;;;;;;;30.52;21.07;102708.31;5198040;28;20056;-80
2022/05/08 10:48:03;;;;;;;10.45;3.00;;;;;;;29.61;21.25;102709.69;5198898;28;20042;-74
2022/05/08 10:50:35;;;;;;;12.77;4.07;;;;;;;29.43;20.80;102705.31;5197083;28;20029;-74
2022/05/08 10:53:19;;;;;;;11.98;3.65;;;;;;;29.39;21.56;102698.63;5198775;28;20080;-74
2022/05/08 10:55:57;;;;;;;11.82;4.18;;;;;;;29.74;20.31;102697.50;5198102;28;20480;-73
2022/05/08 10:58:28;;;;;;;14.82;4.35;;;;;;;30.10;20.47;102705.03;5195340;28;20147;-79
2022/05/08 11:01:03;;;;;;;9.40;3.38;;;;;;;28.33;21.68;102712.81;5197524;28;20037;-79
2022/05/08 11:03:38;;;;;;;21.25;3.80;;;;;;;29.28;21.34;102680.09;5195747;28;20030;-77
2022/05/08 11:06:09;;;;;;;10.88;4.43;;;;;;;30.17;20.73;102691.66;5198560;28;20034;-77
2022/05/08 11:08:40;;;;;;;12.05;3.17;;;;;;;28.59;21.00;102703.75;5198114;28;20426;-77
2022/05/08 11:11:13;;;;;;;8.68;3.28;;;;;;;28.48;21.27;102697.69;5197463;28;20052;-77
2022/05/08 11:13:48;;;;;;;10.45;3.47;;;;;;;29.10;21.42;102695.47;5198075;28;20629;-77
2022/05/08 11:16:42;;;;;;;11.30;4.03;;;;;;;28.50;22.64;102684.06;5198356;28;20490;-77
2022/05/08 11:19:13;;;;;;;13.65;3.92;;;;;;;29.70;21.39;102694.28;5197427;28;20037;-78
2022/05/08 11:21:45;;;;;;;10.18;3.50;;;;;;;29.07;21.93;102684.19;5199231;28;20432;-77
2022/05/08 11:24:23;;;;;;;12.77;4.45;;;;;;;29.08;21.79;102684.00;5202270;28;20072;-77
2022/05/08 11:26:54;;;;;;;10.60;3.30;;;;;;;28.75;20.96;102679.50;5202485;28;20049;-77
2022/05/08 11:29:26;;;;;;;11.13;3.63;;;;;;;27.97;22.48;102689.66;5200962;28;20456;-78
2022/05/08 11:38:17;;;;;;;9.82;3.08;;;;;;;-150.27;100.00;61272.81;5201880;28;20046;-77
2022/05/08 11:40:50;;;;;;;9.32;3.38;;;;;;;-150.27;100.00;61272.81;5202692;28;20700;-77
2022/05/08 11:43:44;;;;;;;11.97;3.10;;;;;;;28.38;22.30;102686.25;5202101;28;20459;-77
2022/05/08 11:46:18;;;;;;;12.05;3.53;;;;;;;27.56;22.45;102677.69;5200611;28;20305;-77
2022/05/08 11:49:45;;;;;;;10.13;3.67;;;;;;;-150.27;100.00;61272.81;5182997;28;20038;-75
2022/05/08 11:52:47;;;;;;;15.23;3.53;;;;;;;-150.27;100.00;61272.81;5217096;28;20022;-76
2022/05/08 11:55:19;;;;;;;13.52;3.85;;;;;;;-150.27;100.00;61272.81;5200523;28;20125;-77
2022/05/08 11:57:50;;;;;;;10.93;3.15;;;;;;;-150.27;100.00;61272.81;5201030;28;20042;-78
2022/05/08 12:00:30;;;;;;;15.40;3.67;;;;;;;27.09;24.15;102660.16;5200315;28;20045;-77
2022/05/08 12:03:02;;;;;;;13.80;3.75;;;;;;;25.88;24.61;102657.72;5200593;28;20112;-78
2022/05/08 12:05:34;;;;;;;11.93;4.10;;;;;;;25.91;25.04;102652.03;5201911;28;20034;-76
2022/05/08 12:08:05;;;;;;;9.98;3.38;;;;;;;25.81;24.79;102655.66;5201978;28;20058;-77
2022/05/08 12:10:38;;;;;;;12.20;4.28;;;;;;;25.78;25.41;102647.03;5201130;28;20034;-77
2022/05/08 12:13:09;;;;;;;12.63;3.53;;;;;;;25.78;25.01;102652.41;5199751;28;20030;-78
2022/05/08 12:15:40;;;;;;;10.40;3.65;;;;;;;26.46;23.96;102647.59;5200856;28;20033;-76
2022/05/08 12:18:11;;;;;;;11.63;4.10;;;;;;;25.22;24.86;102639.78;5201141;28;20041;-77